sensor_id;sensor_type;location;lat;lon;timestamp;P1;durP1;ratioP1;P2;durP2;ratioP2
54452;SDS011;40363;52.270;10.546;2023-06-26T00:01:02;5.85;;;3.50;;
54452;SDS011;40363;52.270;10.546;2023-06-26T00:03:30;5.40;;;3.25;;
54452;SDS011;40363;52.270;10.546;2023-06-26T00:05:57;5.60;;;3.60;;
54452;SDS011;40363;52.270;10.546;2023-06-26T00:08:25;5.18;;;3.20;;
54452;SDS011;40363;52.270;10.546;2023-06-26T00:10:52;4.68;;;3.33;;
54452;SDS011;40363;52.270;10.546;2023-06-26T00:13:19;6.03;;;3.40;;
54452;SDS011;40363;52.270;10.546;2023-06-26T00:15:47;5.80;;;3.30;;
54452;SDS011;40363;52.270;10.546;2023-06-26T00:18:13;5.78;;;3.88;;
54452;SDS011;40363;52.270;10.546;2023-06-26T00:20:40;6.43;;;4.05;;
54452;SDS011;40363;52.270;10.546;2023-06-26T00:23:07;6.10;;;4.00;;
54452;SDS011;40363;52.270;10.546;2023-06-26T00:25:33;5.38;;;4.05;;
54452;SDS011;40363;52.270;10.546;2023-06-26T00:28:00;5.68;;;3.33;;
54452;SDS011;40363;52.270;10.546;2023-06-26T00:30:27;5.40;;;4.03;;
54452;SDS011;40363;52.270;10.546;2023-06-26T00:32:55;4.63;;;3.55;;
54452;SDS011;40363;52.270;10.546;2023-06-26T00:35:21;5.00;;;3.38;;
54452;SDS011;40363;52.270;10.546;2023-06-26T00:37:48;5.03;;;4.00;;
54452;SDS011;40363;52.270;10.546;2023-06-26T00:40:14;4.97;;;3.70;;
54452;SDS011;40363;52.270;10.546;2023-06-26T00:42:41;4.90;;;3.63;;
54452;SDS011;40363;52.270;10.546;2023-06-26T00:45:08;5.03;;;3.50;;
54452;SDS011;40363;52.270;10.546;2023-06-26T00:47:34;7.05;;;4.00;;
54452;SDS011;40363;52.270;10.546;2023-06-26T00:50:02;5.65;;;3.72;;
54452;SDS011;40363;52.270;10.546;2023-06-26T00:52:30;5.32;;;3.75;;
54452;SDS011;40363;52.270;10.546;2023-06-26T00:54:57;5.97;;;3.83;;
54452;SDS011;40363;52.270;10.546;2023-06-26T00:57:24;4.35;;;3.20;;
54452;SDS011;40363;52.270;10.546;2023-06-26T00:59:51;6.70;;;3.83;;
54452;SDS011;40363;52.270;10.546;2023-06-26T01:02:18;5.28;;;3.78;;
54452;SDS011;40363;52.270;10.546;2023-06-26T01:04:45;6.25;;;3.65;;
54452;SDS011;40363;52.270;10.546;2023-06-26T01:07:14;5.85;;;3.53;;
54452;SDS011;40363;52.270;10.546;2023-06-26T01:09:44;5.10;;;3.58;;
54452;SDS011;40363;52.270;10.546;2023-06-26T01:12:12;7.13;;;3.85;;
54452;SDS011;40363;52.270;10.546;2023-06-26T01:14:38;5.18;;;3.40;;
54452;SDS011;40363;52.270;10.546;2023-06-26T01:17:05;4.50;;;3.58;;
54452;SDS011;40363;52.270;10.546;2023-06-26T01:19:37;5.05;;;3.90;;
54452;SDS011;40363;52.270;10.546;2023-06-26T01:22:07;6.20;;;4.18;;
54452;SDS011;40363;52.270;10.546;2023-06-26T01:24:45;9.00;;;4.00;;
54452;SDS011;40363;52.270;10.546;2023-06-26T01:27:24;6.25;;;4.25;;
54452;SDS011;40363;52.270;10.546;2023-06-26T01:29:51;5.43;;;3.42;;
54452;SDS011;40363;52.270;10.546;2023-06-26T01:32:20;5.60;;;3.65;;
54452;SDS011;40363;52.270;10.546;2023-06-26T01:34:48;5.30;;;3.75;;
54452;SDS011;40363;52.270;10.546;2023-06-26T01:37:15;4.65;;;3.78;;
54452;SDS011;40363;52.270;10.546;2023-06-26T01:39:42;4.72;;;3.92;;
54452;SDS011;40363;52.270;10.546;2023-06-26T01:42:08;5.80;;;4.35;;
54452;SDS011;40363;52.270;10.546;2023-06-26T01:44:37;4.70;;;3.50;;
54452;SDS011;40363;52.270;10.546;2023-06-26T01:47:10;5.78;;;3.75;;
54452;SDS011;40363;52.270;10.546;2023-06-26T01:49:42;5.90;;;4.32;;
54452;SDS011;40363;52.270;10.546;2023-06-26T01:52:14;6.07;;;3.67;;
54452;SDS011;40363;52.270;10.546;2023-06-26T01:54:49;5.38;;;3.22;;
54452;SDS011;40363;52.270;10.546;2023-06-26T01:57:21;5.47;;;3.45;;
54452;SDS011;40363;52.270;10.546;2023-06-26T01:59:51;5.93;;;3.80;;
54452;SDS011;40363;52.270;10.546;2023-06-26T02:02:18;4.90;;;3.55;;
54452;SDS011;40363;52.270;10.546;2023-06-26T02:04:45;5.03;;;3.83;;
54452;SDS011;40363;52.270;10.546;2023-06-26T02:07:13;6.65;;;4.55;;
54452;SDS011;40363;52.270;10.546;2023-06-26T02:09:40;6.10;;;3.83;;
54452;SDS011;40363;52.270;10.546;2023-06-26T02:12:07;7.95;;;3.60;;
54452;SDS011;40363;52.270;10.546;2023-06-26T02:14:34;4.68;;;3.30;;
54452;SDS011;40363;52.270;10.546;2023-06-26T02:17:02;4.75;;;3.33;;
54452;SDS011;40363;52.270;10.546;2023-06-26T02:19:28;6.47;;;4.03;;
54452;SDS011;40363;52.270;10.546;2023-06-26T02:21:55;4.13;;;3.20;;
54452;SDS011;40363;52.270;10.546;2023-06-26T02:24:22;6.70;;;3.88;;
54452;SDS011;40363;52.270;10.546;2023-06-26T02:26:48;5.45;;;3.80;;
54452;SDS011;40363;52.270;10.546;2023-06-26T02:29:15;6.70;;;3.70;;
54452;SDS011;40363;52.270;10.546;2023-06-26T02:31:41;5.18;;;3.45;;
54452;SDS011;40363;52.270;10.546;2023-06-26T02:34:09;5.30;;;3.53;;
54452;SDS011;40363;52.270;10.546;2023-06-26T02:36:36;6.13;;;3.72;;
54452;SDS011;40363;52.270;10.546;2023-06-26T02:39:03;5.35;;;3.40;;
54452;SDS011;40363;52.270;10.546;2023-06-26T02:41:29;4.35;;;3.78;;
54452;SDS011;40363;52.270;10.546;2023-06-26T02:43:56;5.80;;;3.63;;
54452;SDS011;40363;52.270;10.546;2023-06-26T02:46:22;6.72;;;3.85;;
54452;SDS011;40363;52.270;10.546;2023-06-26T02:48:49;5.25;;;3.65;;
54452;SDS011;40363;52.270;10.546;2023-06-26T02:51:17;5.28;;;3.42;;
54452;SDS011;40363;52.270;10.546;2023-06-26T02:53:43;5.53;;;3.78;;
54452;SDS011;40363;52.270;10.546;2023-06-26T02:56:10;5.90;;;3.95;;
54452;SDS011;40363;52.270;10.546;2023-06-26T02:58:36;5.55;;;3.85;;
54452;SDS011;40363;52.270;10.546;2023-06-26T03:01:03;6.18;;;3.65;;
54452;SDS011;40363;52.270;10.546;2023-06-26T03:03:29;6.13;;;3.22;;
54452;SDS011;40363;52.270;10.546;2023-06-26T03:06:05;8.57;;;3.95;;
54452;SDS011;40363;52.270;10.546;2023-06-26T03:08:33;8.73;;;4.00;;
54452;SDS011;40363;52.270;10.546;2023-06-26T03:11:02;5.72;;;3.30;;
54452;SDS011;40363;52.270;10.546;2023-06-26T03:13:29;6.28;;;3.45;;
54452;SDS011;40363;52.270;10.546;2023-06-26T03:15:55;4.88;;;3.60;;
54452;SDS011;40363;52.270;10.546;2023-06-26T03:18:22;7.28;;;4.10;;
54452;SDS011;40363;52.270;10.546;2023-06-26T03:20:48;4.15;;;3.45;;
54452;SDS011;40363;52.270;10.546;2023-06-26T03:23:15;5.95;;;3.40;;
54452;SDS011;40363;52.270;10.546;2023-06-26T03:25:43;5.43;;;3.53;;
54452;SDS011;40363;52.270;10.546;2023-06-26T03:28:10;5.97;;;3.97;;
54452;SDS011;40363;52.270;10.546;2023-06-26T03:30:36;5.95;;;4.05;;
54452;SDS011;40363;52.270;10.546;2023-06-26T03:33:03;5.70;;;3.80;;
54452;SDS011;40363;52.270;10.546;2023-06-26T03:35:29;5.25;;;3.10;;
54452;SDS011;40363;52.270;10.546;2023-06-26T03:37:56;5.72;;;3.47;;
54452;SDS011;40363;52.270;10.546;2023-06-26T03:40:23;4.50;;;3.40;;
54452;SDS011;40363;52.270;10.546;2023-06-26T03:42:51;5.47;;;3.17;;
54452;SDS011;40363;52.270;10.546;2023-06-26T03:45:18;5.13;;;3.60;;
54452;SDS011;40363;52.270;10.546;2023-06-26T03:47:44;5.82;;;3.75;;
54452;SDS011;40363;52.270;10.546;2023-06-26T03:50:13;4.40;;;3.40;;
54452;SDS011;40363;52.270;10.546;2023-06-26T03:52:40;5.80;;;3.58;;
54452;SDS011;40363;52.270;10.546;2023-06-26T03:55:08;7.40;;;3.40;;
54452;SDS011;40363;52.270;10.546;2023-06-26T03:57:35;4.40;;;3.33;;
54452;SDS011;40363;52.270;10.546;2023-06-26T04:00:03;5.90;;;3.53;;
54452;SDS011;40363;52.270;10.546;2023-06-26T04:02:33;4.53;;;3.30;;
54452;SDS011;40363;52.270;10.546;2023-06-26T04:05:00;7.18;;;3.83;;
54452;SDS011;40363;52.270;10.546;2023-06-26T04:07:28;6.15;;;3.63;;
54452;SDS011;40363;52.270;10.546;2023-06-26T04:09:56;4.40;;;3.45;;
54452;SDS011;40363;52.270;10.546;2023-06-26T04:12:22;6.40;;;3.47;;
54452;SDS011;40363;52.270;10.546;2023-06-26T04:14:49;5.72;;;3.92;;
54452;SDS011;40363;52.270;10.546;2023-06-26T04:17:17;6.30;;;3.85;;
54452;SDS011;40363;52.270;10.546;2023-06-26T04:19:43;4.38;;;3.10;;
54452;SDS011;40363;52.270;10.546;2023-06-26T04:22:10;5.47;;;3.75;;
54452;SDS011;40363;52.270;10.546;2023-06-26T04:24:36;8.23;;;3.80;;
54452;SDS011;40363;52.270;10.546;2023-06-26T04:27:03;6.97;;;3.50;;
54452;SDS011;40363;52.270;10.546;2023-06-26T04:29:30;8.27;;;3.80;;
54452;SDS011;40363;52.270;10.546;2023-06-26T04:31:57;5.28;;;3.42;;
54452;SDS011;40363;52.270;10.546;2023-06-26T04:34:25;5.90;;;3.63;;
54452;SDS011;40363;52.270;10.546;2023-06-26T04:36:52;4.75;;;3.50;;
54452;SDS011;40363;52.270;10.546;2023-06-26T04:39:18;4.57;;;3.25;;
54452;SDS011;40363;52.270;10.546;2023-06-26T04:41:48;5.35;;;3.88;;
54452;SDS011;40363;52.270;10.546;2023-06-26T04:44:15;4.65;;;3.50;;
54452;SDS011;40363;52.270;10.546;2023-06-26T04:46:41;5.25;;;2.92;;
54452;SDS011;40363;52.270;10.546;2023-06-26T04:49:08;6.32;;;3.08;;
54452;SDS011;40363;52.270;10.546;2023-06-26T04:51:36;7.03;;;3.63;;
54452;SDS011;40363;52.270;10.546;2023-06-26T04:54:05;5.53;;;3.28;;
54452;SDS011;40363;52.270;10.546;2023-06-26T04:56:32;5.63;;;3.45;;
54452;SDS011;40363;52.270;10.546;2023-06-26T04:58:58;4.97;;;3.97;;
54452;SDS011;40363;52.270;10.546;2023-06-26T05:01:25;4.00;;;2.83;;
54452;SDS011;40363;52.270;10.546;2023-06-26T05:03:53;5.30;;;3.88;;
54452;SDS011;40363;52.270;10.546;2023-06-26T05:06:20;4.25;;;3.22;;
54452;SDS011;40363;52.270;10.546;2023-06-26T05:08:47;6.07;;;3.47;;
54452;SDS011;40363;52.270;10.546;2023-06-26T05:11:14;5.80;;;3.80;;
54452;SDS011;40363;52.270;10.546;2023-06-26T05:13:41;5.68;;;3.67;;
54452;SDS011;40363;52.270;10.546;2023-06-26T05:16:08;8.20;;;3.53;;
54452;SDS011;40363;52.270;10.546;2023-06-26T05:18:35;5.43;;;3.50;;
54452;SDS011;40363;52.270;10.546;2023-06-26T05:21:02;4.40;;;3.13;;
54452;SDS011;40363;52.270;10.546;2023-06-26T05:23:30;6.72;;;3.67;;
54452;SDS011;40363;52.270;10.546;2023-06-26T05:25:59;5.65;;;3.63;;
54452;SDS011;40363;52.270;10.546;2023-06-26T05:28:26;6.00;;;3.60;;
54452;SDS011;40363;52.270;10.546;2023-06-26T05:30:53;5.10;;;3.15;;
54452;SDS011;40363;52.270;10.546;2023-06-26T05:33:21;6.05;;;3.30;;
54452;SDS011;40363;52.270;10.546;2023-06-26T05:35:50;5.15;;;3.30;;
54452;SDS011;40363;52.270;10.546;2023-06-26T05:38:18;5.07;;;3.25;;
54452;SDS011;40363;52.270;10.546;2023-06-26T05:40:45;4.57;;;3.30;;
54452;SDS011;40363;52.270;10.546;2023-06-26T05:43:14;5.68;;;3.25;;
54452;SDS011;40363;52.270;10.546;2023-06-26T05:45:41;6.35;;;3.40;;
54452;SDS011;40363;52.270;10.546;2023-06-26T05:48:07;5.53;;;3.83;;
54452;SDS011;40363;52.270;10.546;2023-06-26T05:50:34;5.03;;;3.67;;
54452;SDS011;40363;52.270;10.546;2023-06-26T05:53:01;5.93;;;3.20;;
54452;SDS011;40363;52.270;10.546;2023-06-26T05:55:29;6.13;;;3.30;;
54452;SDS011;40363;52.270;10.546;2023-06-26T05:57:56;4.80;;;3.22;;
54452;SDS011;40363;52.270;10.546;2023-06-26T06:00:26;5.50;;;3.72;;
54452;SDS011;40363;52.270;10.546;2023-06-26T06:02:54;5.90;;;3.70;;
54452;SDS011;40363;52.270;10.546;2023-06-26T06:05:20;4.68;;;3.45;;
54452;SDS011;40363;52.270;10.546;2023-06-26T06:07:47;8.05;;;3.40;;
54452;SDS011;40363;52.270;10.546;2023-06-26T06:10:14;5.57;;;3.30;;
54452;SDS011;40363;52.270;10.546;2023-06-26T06:12:40;7.05;;;4.05;;
54452;SDS011;40363;52.270;10.546;2023-06-26T06:15:07;9.00;;;3.80;;
54452;SDS011;40363;52.270;10.546;2023-06-26T06:17:35;4.32;;;3.33;;
54452;SDS011;40363;52.270;10.546;2023-06-26T06:20:02;4.30;;;3.20;;
54452;SDS011;40363;52.270;10.546;2023-06-26T06:22:29;5.32;;;3.65;;
54452;SDS011;40363;52.270;10.546;2023-06-26T06:24:56;6.60;;;3.47;;
54452;SDS011;40363;52.270;10.546;2023-06-26T06:27:22;5.68;;;3.60;;
54452;SDS011;40363;52.270;10.546;2023-06-26T06:29:49;6.10;;;3.67;;
54452;SDS011;40363;52.270;10.546;2023-06-26T06:32:16;6.82;;;3.67;;
54452;SDS011;40363;52.270;10.546;2023-06-26T06:34:44;4.78;;;3.55;;
54452;SDS011;40363;52.270;10.546;2023-06-26T06:37:10;5.90;;;3.80;;
54452;SDS011;40363;52.270;10.546;2023-06-26T06:39:37;4.82;;;3.63;;
54452;SDS011;40363;52.270;10.546;2023-06-26T06:42:04;8.95;;;3.88;;
54452;SDS011;40363;52.270;10.546;2023-06-26T06:44:31;5.22;;;4.05;;
54452;SDS011;40363;52.270;10.546;2023-06-26T06:46:57;5.00;;;3.42;;
54452;SDS011;40363;52.270;10.546;2023-06-26T06:49:24;6.63;;;3.83;;
54452;SDS011;40363;52.270;10.546;2023-06-26T06:51:52;5.57;;;4.13;;
54452;SDS011;40363;52.270;10.546;2023-06-26T06:54:19;5.68;;;3.83;;
54452;SDS011;40363;52.270;10.546;2023-06-26T06:56:45;7.70;;;3.78;;
54452;SDS011;40363;52.270;10.546;2023-06-26T06:59:12;5.90;;;3.92;;
54452;SDS011;40363;52.270;10.546;2023-06-26T07:01:38;10.32;;;4.70;;
54452;SDS011;40363;52.270;10.546;2023-06-26T07:04:06;4.75;;;3.53;;
54452;SDS011;40363;52.270;10.546;2023-06-26T07:06:32;6.00;;;3.72;;
54452;SDS011;40363;52.270;10.546;2023-06-26T07:09:00;4.63;;;3.67;;
54452;SDS011;40363;52.270;10.546;2023-06-26T07:11:27;5.32;;;3.65;;
54452;SDS011;40363;52.270;10.546;2023-06-26T07:13:54;6.47;;;4.07;;
54452;SDS011;40363;52.270;10.546;2023-06-26T07:16:21;6.40;;;3.90;;
54452;SDS011;40363;52.270;10.546;2023-06-26T07:18:47;6.40;;;4.03;;
54452;SDS011;40363;52.270;10.546;2023-06-26T07:21:15;5.35;;;4.05;;
54452;SDS011;40363;52.270;10.546;2023-06-26T07:23:41;5.78;;;3.72;;
54452;SDS011;40363;52.270;10.546;2023-06-26T07:26:09;4.55;;;3.83;;
54452;SDS011;40363;52.270;10.546;2023-06-26T07:28:36;5.95;;;4.32;;
54452;SDS011;40363;52.270;10.546;2023-06-26T07:31:02;5.90;;;4.35;;
54452;SDS011;40363;52.270;10.546;2023-06-26T07:33:29;5.82;;;4.10;;
54452;SDS011;40363;52.270;10.546;2023-06-26T07:35:55;5.47;;;4.55;;
54452;SDS011;40363;52.270;10.546;2023-06-26T07:38:22;13.18;;;4.20;;
54452;SDS011;40363;52.270;10.546;2023-06-26T07:40:48;6.20;;;4.47;;
54452;SDS011;40363;52.270;10.546;2023-06-26T07:43:18;6.95;;;4.25;;
54452;SDS011;40363;52.270;10.546;2023-06-26T07:45:45;6.22;;;3.97;;
54452;SDS011;40363;52.270;10.546;2023-06-26T07:48:12;7.25;;;3.92;;
54452;SDS011;40363;52.270;10.546;2023-06-26T07:50:38;5.47;;;3.65;;
54452;SDS011;40363;52.270;10.546;2023-06-26T07:53:05;7.35;;;4.38;;
54452;SDS011;40363;52.270;10.546;2023-06-26T07:55:31;4.30;;;3.75;;
54452;SDS011;40363;52.270;10.546;2023-06-26T07:57:58;6.80;;;5.07;;
54452;SDS011;40363;52.270;10.546;2023-06-26T08:00:27;5.63;;;3.70;;
54452;SDS011;40363;52.270;10.546;2023-06-26T08:02:54;6.07;;;3.97;;
54452;SDS011;40363;52.270;10.546;2023-06-26T08:05:20;7.93;;;4.22;;
54452;SDS011;40363;52.270;10.546;2023-06-26T08:07:47;6.20;;;4.43;;
54452;SDS011;40363;52.270;10.546;2023-06-26T08:10:14;10.95;;;4.10;;
54452;SDS011;40363;52.270;10.546;2023-06-26T08:12:40;8.48;;;4.60;;
54452;SDS011;40363;52.270;10.546;2023-06-26T08:15:09;5.05;;;3.50;;
54452;SDS011;40363;52.270;10.546;2023-06-26T08:17:38;7.40;;;4.43;;
54452;SDS011;40363;52.270;10.546;2023-06-26T08:20:05;4.60;;;4.10;;
54452;SDS011;40363;52.270;10.546;2023-06-26T08:22:33;4.45;;;3.65;;
54452;SDS011;40363;52.270;10.546;2023-06-26T08:25:00;6.30;;;4.50;;
54452;SDS011;40363;52.270;10.546;2023-06-26T08:27:28;4.68;;;4.00;;
54452;SDS011;40363;52.270;10.546;2023-06-26T08:29:54;6.07;;;3.95;;
54452;SDS011;40363;52.270;10.546;2023-06-26T08:32:21;6.57;;;4.93;;
54452;SDS011;40363;52.270;10.546;2023-06-26T08:34:49;6.03;;;4.40;;
54452;SDS011;40363;52.270;10.546;2023-06-26T08:37:15;6.10;;;3.80;;
54452;SDS011;40363;52.270;10.546;2023-06-26T08:39:42;5.75;;;4.43;;
54452;SDS011;40363;52.270;10.546;2023-06-26T08:42:09;5.38;;;4.07;;
54452;SDS011;40363;52.270;10.546;2023-06-26T08:44:35;8.95;;;4.43;;
54452;SDS011;40363;52.270;10.546;2023-06-26T08:47:02;6.68;;;4.05;;
54452;SDS011;40363;52.270;10.546;2023-06-26T08:49:30;5.88;;;4.55;;
54452;SDS011;40363;52.270;10.546;2023-06-26T08:52:06;8.45;;;4.22;;
54452;SDS011;40363;52.270;10.546;2023-06-26T08:54:40;7.60;;;4.60;;
54452;SDS011;40363;52.270;10.546;2023-06-26T08:57:12;4.85;;;3.90;;
54452;SDS011;40363;52.270;10.546;2023-06-26T08:59:44;5.50;;;3.80;;
54452;SDS011;40363;52.270;10.546;2023-06-26T09:02:12;5.68;;;4.43;;
54452;SDS011;40363;52.270;10.546;2023-06-26T09:04:38;6.57;;;4.68;;
54452;SDS011;40363;52.270;10.546;2023-06-26T09:07:07;6.40;;;4.20;;
54452;SDS011;40363;52.270;10.546;2023-06-26T09:09:34;7.32;;;4.45;;
54452;SDS011;40363;52.270;10.546;2023-06-26T09:12:01;6.20;;;4.50;;
54452;SDS011;40363;52.270;10.546;2023-06-26T09:14:28;5.38;;;4.53;;
54452;SDS011;40363;52.270;10.546;2023-06-26T09:16:55;5.13;;;4.18;;
54452;SDS011;40363;52.270;10.546;2023-06-26T09:19:22;5.18;;;4.25;;
54452;SDS011;40363;52.270;10.546;2023-06-26T09:21:49;5.03;;;4.05;;
54452;SDS011;40363;52.270;10.546;2023-06-26T09:24:17;5.50;;;3.67;;
54452;SDS011;40363;52.270;10.546;2023-06-26T09:26:44;6.60;;;4.47;;
54452;SDS011;40363;52.270;10.546;2023-06-26T09:29:11;5.57;;;4.30;;
54452;SDS011;40363;52.270;10.546;2023-06-26T09:31:39;4.82;;;3.70;;
54452;SDS011;40363;52.270;10.546;2023-06-26T09:34:06;6.10;;;4.63;;
54452;SDS011;40363;52.270;10.546;2023-06-26T09:36:33;4.40;;;3.78;;
54452;SDS011;40363;52.270;10.546;2023-06-26T09:39:01;6.68;;;4.78;;
54452;SDS011;40363;52.270;10.546;2023-06-26T09:41:30;5.38;;;4.25;;
54452;SDS011;40363;52.270;10.546;2023-06-26T09:43:58;5.00;;;4.15;;
54452;SDS011;40363;52.270;10.546;2023-06-26T09:46:28;6.25;;;4.63;;
54452;SDS011;40363;52.270;10.546;2023-06-26T09:48:59;5.43;;;4.40;;
54452;SDS011;40363;52.270;10.546;2023-06-26T09:51:28;4.55;;;3.90;;
54452;SDS011;40363;52.270;10.546;2023-06-26T09:53:56;7.60;;;4.95;;
54452;SDS011;40363;52.270;10.546;2023-06-26T09:56:23;6.97;;;4.55;;
54452;SDS011;40363;52.270;10.546;2023-06-26T09:58:51;6.18;;;4.70;;
54452;SDS011;40363;52.270;10.546;2023-06-26T10:01:20;6.38;;;4.53;;
54452;SDS011;40363;52.270;10.546;2023-06-26T10:03:47;5.28;;;4.20;;
54452;SDS011;40363;52.270;10.546;2023-06-26T10:06:13;6.10;;;4.60;;
54452;SDS011;40363;52.270;10.546;2023-06-26T10:08:43;6.32;;;4.68;;
54452;SDS011;40363;52.270;10.546;2023-06-26T10:11:11;5.55;;;4.47;;
54452;SDS011;40363;52.270;10.546;2023-06-26T10:13:42;8.45;;;4.95;;
54452;SDS011;40363;52.270;10.546;2023-06-26T10:16:12;7.50;;;4.68;;
54452;SDS011;40363;52.270;10.546;2023-06-26T10:18:42;6.60;;;5.07;;
54452;SDS011;40363;52.270;10.546;2023-06-26T10:21:10;6.82;;;5.70;;
54452;SDS011;40363;52.270;10.546;2023-06-26T10:23:38;7.30;;;5.53;;
54452;SDS011;40363;52.270;10.546;2023-06-26T10:26:08;6.07;;;4.80;;
54452;SDS011;40363;52.270;10.546;2023-06-26T10:28:37;6.68;;;5.80;;
54452;SDS011;40363;52.270;10.546;2023-06-26T10:31:05;6.43;;;5.53;;
54452;SDS011;40363;52.270;10.546;2023-06-26T10:33:36;7.43;;;5.47;;
54452;SDS011;40363;52.270;10.546;2023-06-26T10:36:12;7.13;;;5.60;;
54452;SDS011;40363;52.270;10.546;2023-06-26T10:38:48;8.18;;;6.35;;
54452;SDS011;40363;52.270;10.546;2023-06-26T10:41:14;11.02;;;5.97;;
54452;SDS011;40363;52.270;10.546;2023-06-26T10:43:45;6.93;;;5.20;;
54452;SDS011;40363;52.270;10.546;2023-06-26T10:46:15;7.55;;;6.35;;
54452;SDS011;40363;52.270;10.546;2023-06-26T10:48:56;7.68;;;6.18;;
54452;SDS011;40363;52.270;10.546;2023-06-26T10:51:25;8.07;;;5.82;;
54452;SDS011;40363;52.270;10.546;2023-06-26T10:53:53;9.73;;;7.10;;
54452;SDS011;40363;52.270;10.546;2023-06-26T10:56:21;7.03;;;6.10;;
54452;SDS011;40363;52.270;10.546;2023-06-26T10:58:47;9.95;;;6.70;;
54452;SDS011;40363;52.270;10.546;2023-06-26T11:01:16;9.45;;;5.72;;
54452;SDS011;40363;52.270;10.546;2023-06-26T11:03:44;10.68;;;6.63;;
54452;SDS011;40363;52.270;10.546;2023-06-26T11:06:13;9.73;;;7.13;;
54452;SDS011;40363;52.270;10.546;2023-06-26T11:08:44;10.07;;;6.85;;
54452;SDS011;40363;52.270;10.546;2023-06-26T11:11:11;9.43;;;6.25;;
54452;SDS011;40363;52.270;10.546;2023-06-26T11:13:39;11.15;;;6.50;;
54452;SDS011;40363;52.270;10.546;2023-06-26T11:16:06;7.28;;;5.90;;
54452;SDS011;40363;52.270;10.546;2023-06-26T11:18:33;8.63;;;6.25;;
54452;SDS011;40363;52.270;10.546;2023-06-26T11:21:06;17.05;;;6.43;;
54452;SDS011;40363;52.270;10.546;2023-06-26T11:23:35;9.45;;;6.10;;
54452;SDS011;40363;52.270;10.546;2023-06-26T11:26:15;7.95;;;6.43;;
54452;SDS011;40363;52.270;10.546;2023-06-26T11:28:47;9.02;;;6.22;;
54452;SDS011;40363;52.270;10.546;2023-06-26T11:31:23;11.77;;;7.32;;
54452;SDS011;40363;52.270;10.546;2023-06-26T11:33:51;10.18;;;6.47;;
54452;SDS011;40363;52.270;10.546;2023-06-26T11:36:18;12.82;;;7.78;;
54452;SDS011;40363;52.270;10.546;2023-06-26T11:38:51;11.27;;;8.05;;
54452;SDS011;40363;52.270;10.546;2023-06-26T11:41:19;10.90;;;6.85;;
54452;SDS011;40363;52.270;10.546;2023-06-26T11:43:45;15.80;;;6.93;;
54452;SDS011;40363;52.270;10.546;2023-06-26T11:46:12;14.48;;;6.78;;
54452;SDS011;40363;52.270;10.546;2023-06-26T11:48:39;11.05;;;6.28;;
54452;SDS011;40363;52.270;10.546;2023-06-26T11:51:05;9.27;;;5.60;;
54452;SDS011;40363;52.270;10.546;2023-06-26T11:53:32;10.70;;;5.28;;
54452;SDS011;40363;52.270;10.546;2023-06-26T11:56:08;5.93;;;4.18;;
54452;SDS011;40363;52.270;10.546;2023-06-26T11:58:35;8.43;;;4.25;;
54452;SDS011;40363;52.270;10.546;2023-06-26T12:01:02;10.40;;;4.45;;
54452;SDS011;40363;52.270;10.546;2023-06-26T12:03:29;8.48;;;4.32;;
54452;SDS011;40363;52.270;10.546;2023-06-26T12:05:58;7.18;;;4.68;;
54452;SDS011;40363;52.270;10.546;2023-06-26T12:08:26;8.75;;;5.35;;
54452;SDS011;40363;52.270;10.546;2023-06-26T12:10:52;7.88;;;4.65;;
54452;SDS011;40363;52.270;10.546;2023-06-26T12:13:21;8.45;;;5.07;;
54452;SDS011;40363;52.270;10.546;2023-06-26T12:15:48;8.43;;;4.88;;
54452;SDS011;40363;52.270;10.546;2023-06-26T12:18:15;10.60;;;5.70;;
54452;SDS011;40363;52.270;10.546;2023-06-26T12:20:42;10.02;;;5.63;;
54452;SDS011;40363;52.270;10.546;2023-06-26T12:23:11;8.52;;;6.05;;
54452;SDS011;40363;52.270;10.546;2023-06-26T12:25:38;15.35;;;5.68;;
54452;SDS011;40363;52.270;10.546;2023-06-26T12:28:14;12.48;;;6.22;;
54452;SDS011;40363;52.270;10.546;2023-06-26T12:30:46;9.73;;;5.25;;
54452;SDS011;40363;52.270;10.546;2023-06-26T12:33:13;9.82;;;5.47;;
54452;SDS011;40363;52.270;10.546;2023-06-26T12:35:40;7.80;;;5.30;;
54452;SDS011;40363;52.270;10.546;2023-06-26T12:38:08;10.25;;;6.30;;
54452;SDS011;40363;52.270;10.546;2023-06-26T12:40:35;14.13;;;7.03;;
54452;SDS011;40363;52.270;10.546;2023-06-26T12:43:11;11.45;;;7.60;;
54452;SDS011;40363;52.270;10.546;2023-06-26T12:45:37;7.15;;;5.78;;
54452;SDS011;40363;52.270;10.546;2023-06-26T12:48:11;9.02;;;6.20;;
54452;SDS011;40363;52.270;10.546;2023-06-26T12:50:43;10.65;;;7.35;;
54452;SDS011;40363;52.270;10.546;2023-06-26T12:53:10;13.18;;;6.70;;
54452;SDS011;40363;52.270;10.546;2023-06-26T12:55:36;13.45;;;7.80;;
54452;SDS011;40363;52.270;10.546;2023-06-26T12:58:03;11.73;;;7.10;;
54452;SDS011;40363;52.270;10.546;2023-06-26T13:00:29;13.23;;;7.50;;
54452;SDS011;40363;52.270;10.546;2023-06-26T13:02:57;13.70;;;7.13;;
54452;SDS011;40363;52.270;10.546;2023-06-26T13:05:25;12.93;;;6.70;;
54452;SDS011;40363;52.270;10.546;2023-06-26T13:07:52;13.18;;;7.72;;
54452;SDS011;40363;52.270;10.546;2023-06-26T13:10:18;10.68;;;7.10;;
54452;SDS011;40363;52.270;10.546;2023-06-26T13:12:45;10.68;;;7.15;;
54452;SDS011;40363;52.270;10.546;2023-06-26T13:15:11;11.63;;;7.55;;
54452;SDS011;40363;52.270;10.546;2023-06-26T13:17:38;13.10;;;8.20;;
54452;SDS011;40363;52.270;10.546;2023-06-26T13:20:05;10.63;;;7.38;;
54452;SDS011;40363;52.270;10.546;2023-06-26T13:22:34;13.55;;;6.57;;
54452;SDS011;40363;52.270;10.546;2023-06-26T13:25:01;9.13;;;5.90;;
54452;SDS011;40363;52.270;10.546;2023-06-26T13:27:28;10.18;;;5.60;;
54452;SDS011;40363;52.270;10.546;2023-06-26T13:29:54;10.50;;;5.68;;
54452;SDS011;40363;52.270;10.546;2023-06-26T13:32:21;9.25;;;5.38;;
54452;SDS011;40363;52.270;10.546;2023-06-26T13:34:47;7.93;;;5.25;;
54452;SDS011;40363;52.270;10.546;2023-06-26T13:37:14;7.97;;;4.22;;
54452;SDS011;40363;52.270;10.546;2023-06-26T13:39:42;8.45;;;4.35;;
54452;SDS011;40363;52.270;10.546;2023-06-26T13:42:14;8.77;;;4.45;;
54452;SDS011;40363;52.270;10.546;2023-06-26T13:44:41;5.80;;;4.03;;
54452;SDS011;40363;52.270;10.546;2023-06-26T13:47:07;9.07;;;4.68;;
54452;SDS011;40363;52.270;10.546;2023-06-26T13:49:34;6.35;;;4.18;;
54452;SDS011;40363;52.270;10.546;2023-06-26T13:52:01;7.38;;;4.07;;
54452;SDS011;40363;52.270;10.546;2023-06-26T13:54:28;5.85;;;3.70;;
54452;SDS011;40363;52.270;10.546;2023-06-26T13:56:56;6.15;;;4.13;;
54452;SDS011;40363;52.270;10.546;2023-06-26T13:59:22;7.82;;;4.50;;
54452;SDS011;40363;52.270;10.546;2023-06-26T14:01:50;6.63;;;3.65;;
54452;SDS011;40363;52.270;10.546;2023-06-26T14:04:17;6.47;;;3.95;;
54452;SDS011;40363;52.270;10.546;2023-06-26T14:06:43;5.50;;;3.25;;
54452;SDS011;40363;52.270;10.546;2023-06-26T14:09:10;6.32;;;3.17;;
54452;SDS011;40363;52.270;10.546;2023-06-26T14:11:37;4.90;;;3.10;;
54452;SDS011;40363;52.270;10.546;2023-06-26T14:14:05;5.10;;;3.38;;
54452;SDS011;40363;52.270;10.546;2023-06-26T14:16:32;5.13;;;3.10;;
54452;SDS011;40363;52.270;10.546;2023-06-26T14:18:59;6.20;;;3.17;;
54452;SDS011;40363;52.270;10.546;2023-06-26T14:21:26;6.95;;;2.65;;
54452;SDS011;40363;52.270;10.546;2023-06-26T14:23:53;5.80;;;3.03;;
54452;SDS011;40363;52.270;10.546;2023-06-26T14:26:20;5.15;;;3.15;;
54452;SDS011;40363;52.270;10.546;2023-06-26T14:28:46;4.40;;;3.00;;
54452;SDS011;40363;52.270;10.546;2023-06-26T14:31:14;3.83;;;2.78;;
54452;SDS011;40363;52.270;10.546;2023-06-26T14:33:41;3.38;;;2.30;;
54452;SDS011;40363;52.270;10.546;2023-06-26T14:36:07;4.97;;;3.15;;